Time;durP1;ratioP1;P1;durP2;ratioP2;P2;SDS_P1;SDS_P2;PMS_P1;PMS_P2;Temp;Humidity;BMP_temperature;BMP_pressure;BME280_temperature;BME280_humidity;BME280_pressure;Samples;Min_cycle;Max_cycle;Signal;HPM_P1;HPM_P2
2023/10/12 00:08:55;;;;;;;11.2;5.8;;;;;;;14.39;79.52;;;;;
2023/10/12 00:19:55;;;;;;;14.5;6.6;;;;;;;14.3;80.15;;;;;
2023/10/12 00:30:57;;;;;;;14.5;6.6;;;;;;;14.33;80.27;;;;;
2023/10/12 00:41:55;;;;;;;11.7;5.2;;;;;;;14.3;79.69;;;;;
2023/10/12 00:52:07;;;;;;;11.7;5.2;;;;;;;14.3;80.36;;;;;
2023/10/12 01:03:07;;;;;;;11.7;5.2;;;;;;;14.45;81.26;;;;;
2023/10/12 01:12:57;;;;;;;9.3;5;;;;;;;14.73;80.69;;;;;
2023/10/12 01:22:57;;;;;;;9.3;5;;;;;;;15.08;79.62;;;;;
2023/10/12 01:33:55;;;;;;;9.3;5;;;;;;;14.98;79.96;;;;;
2023/10/12 01:43:56;;;;;;;9.9;5.6;;;;;;;15.06;79.88;;;;;
2023/10/12 01:54:58;;;;;;;9.9;5.6;;;;;;;15.1;79.45;;;;;
2023/10/12 02:05:58;;;;;;;9.9;5.6;;;;;;;15.18;79.54;;;;;
2023/10/12 02:16:55;;;;;;;8.6;5.2;;;;;;;15.29;79.15;;;;;
2023/10/12 02:27:57;;;;;;;8.6;5.2;;;;;;;15.3;79.13;;;;;
2023/10/12 02:37:58;;;;;;;8.6;5.2;;;;;;;15.25;78.82;;;;;
2023/10/12 02:48:04;;;;;;;9.7;5.5;;;;;;;15.03;79.1;;;;;
2023/10/12 02:57:56;;;;;;;9.7;5.5;;;;;;;14.86;79.73;;;;;
2023/10/12 03:09:13;;;;;;;9.7;5.5;;;;;;;14.5;79.5;;;;;
2023/10/12 03:19:00;;;;;;;9.2;5.4;;;;;;;14.17;81;;;;;
2023/10/12 03:29:08;;;;;;;9.2;5.4;;;;;;;14.11;81.74;;;;;
2023/10/12 03:39:12;;;;;;;9.2;5.4;;;;;;;14.21;82.1;;;;;
2023/10/12 03:50:00;;;;;;;10.2;5.8;;;;;;;14.26;81.75;;;;;
2023/10/12 04:01:08;;;;;;;10.2;5.8;;;;;;;14.39;81.6;;;;;
2023/10/12 04:12:11;;;;;;;13.5;6.1;;;;;;;14.47;81;;;;;
2023/10/12 04:24:27;;;;;;;13.5;6.1;;;;;;;14.47;81.07;;;;;
2023/10/12 04:33:11;;;;;;;13.5;6.1;;;;;;;14.46;81;;;;;
2023/10/12 04:44:06;;;;;;;11.8;6;;;;;;;14.41;80.76;;;;;
2023/10/12 04:53:57;;;;;;;11.8;6;;;;;;;14.4;81.22;;;;;
2023/10/12 05:04:35;;;;;;;11.8;6;;;;;;;14.96;79.26;;;;;
2023/10/12 05:14:56;;;;;;;10.6;5.9;;;;;;;15.18;78.61;;;;;
2023/10/12 05:24:55;;;;;;;10.6;5.9;;;;;;;15.57;76.98;;;;;
2023/10/12 05:34:57;;;;;;;10.6;5.9;;;;;;;15.85;76.39;;;;;
2023/10/12 05:46:00;;;;;;;11.2;6.2;;;;;;;16.34;75.29;;;;;
2023/10/12 05:56:55;;;;;;;11.2;6.2;;;;;;;16.79;74.1;;;;;
2023/10/12 06:06:55;;;;;;;11.2;6.2;;;;;;;17.13;72.97;;;;;
2023/10/12 06:16:59;;;;;;;11.6;6.2;;;;;;;17.23;72.52;;;;;
2023/10/12 06:27:55;;;;;;;11.6;6.2;;;;;;;17.24;72.38;;;;;
2023/10/12 06:39:40;;;;;;;11.6;6.2;;;;;;;17.43;71.15;;;;;
2023/10/12 06:49:00;;;;;;;11;6.4;;;;;;;17.6;71.03;;;;;
2023/10/12 07:00:17;;;;;;;11;6.4;;;;;;;17.87;70.12;;;;;
2023/10/12 07:11:00;;;;;;;12.7;6.3;;;;;;;18.7;66.84;;;;;
2023/10/12 07:20:55;;;;;;;12.7;6.3;;;;;;;19.21;66.02;;;;;
2023/10/12 07:31:15;;;;;;;12.7;6.3;;;;;;;19.77;64.7;;;;;
2023/10/12 07:40:56;;;;;;;13.9;5.7;;;;;;;20.16;63.23;;;;;
2023/10/12 07:52:03;;;;;;;13.9;5.7;;;;;;;20.04;64.64;;;;;
2023/10/12 08:01:55;;;;;;;13.9;5.7;;;;;;;19.9;64.69;;;;;
2023/10/12 08:11:56;;;;;;;9.8;5.5;;;;;;;20.12;65.09;;;;;
2023/10/12 08:23:02;;;;;;;9.8;5.5;;;;;;;20.64;63.44;;;;;
2023/10/12 08:32:57;;;;;;;9.8;5.5;;;;;;;20.97;63.89;;;;;
2023/10/12 08:43:59;;;;;;;10.4;5.9;;;;;;;21.3;62.07;;;;;
2023/10/12 08:53:56;;;;;;;10.4;5.9;;;;;;;21.65;62.12;;;;;
2023/10/12 09:04:03;;;;;;;10.4;5.9;;;;;;;21.82;61.15;;;;;
2023/10/12 09:14:55;;;;;;;9.1;5.1;;;;;;;22.23;60.45;;;;;
2023/10/12 09:24:59;;;;;;;9.1;5.1;;;;;;;22.68;57.02;;;;;
2023/10/12 09:35:10;;;;;;;;;;;;;;;;;;;;;
2023/10/12 09:45:58;;;;;;;;;;;;;;;;;;;;;
2023/10/12 09:56:57;;;;;;;;;;;;;;;;;;;;;
2023/10/12 10:07:08;;;;;;;;;;;;;;;;;;;;;
2023/10/12 10:16:58;;;;;;;;;;;;;;;;;;;;;
2023/10/12 10:26:57;;;;;;;;;;;;;;;;;;;;;
2023/10/12 10:37:58;;;;;;;;;;;;;;;;;;;;;
2023/10/12 10:47:56;;;;;;;;;;;;;;;;;;;;;
2023/10/12 10:57:56;;;;;;;;;;;;;;;;;;;;;
2023/10/12 11:08:12;;;;;;;;;;;;;;;23.8;52.83;;;;;
2023/10/12 11:18:57;;;;;;;8.3;5.6;;;;;;;23.48;56.34;;;;;
2023/10/12 11:28:56;;;;;;;8.3;5.6;;;;;;;23.81;54.13;;;;;
2023/10/12 11:38:57;;;;;;;8.3;5.6;;;;;;;24.11;53.84;;;;;
2023/10/12 11:49:56;;;;;;;12;6;;;;;;;23.87;51.29;;;;;
2023/10/12 11:59:56;;;;;;;12;6;;;;;;;23.99;51.09;;;;;
2023/10/12 12:10:01;;;;;;;12;6;;;;;;;23.24;52.58;;;;;
2023/10/12 12:20:56;;;;;;;10.3;5.6;;;;;;;22.66;53.05;;;;;
2023/10/12 12:31:57;;;;;;;10.3;5.6;;;;;;;22.41;55.1;;;;;
2023/10/12 12:41:56;;;;;;;12.1;5.2;;;;;;;22.79;55.4;;;;;
2023/10/12 12:51:57;;;;;;;12.1;5.2;;;;;;;22.92;54.89;;;;;
2023/10/12 13:03:00;;;;;;;12.1;5.2;;;;;;;22.37;56.94;;;;;
2023/10/12 13:12:56;;;;;;;12.5;5.6;;;;;;;22.12;58.19;;;;;
2023/10/12 13:23:56;;;;;;;12.5;5.6;;;;;;;22.16;57.7;;;;;
2023/10/12 13:33:56;;;;;;;12.5;5.6;;;;;;;22.02;57.64;;;;;
2023/10/12 13:44:56;;;;;;;12.9;5.7;;;;;;;22.17;56.76;;;;;
2023/10/12 13:54:57;;;;;;;12.9;5.7;;;;;;;22.14;57.5;;;;;
2023/10/12 14:05:56;;;;;;;12.9;5.7;;;;;;;22.4;57.07;;;;;
2023/10/12 14:16:56;;;;;;;13.7;6.2;;;;;;;21.62;57.96;;;;;
2023/10/12 14:27:59;;;;;;;13.7;6.2;;;;;;;21.12;60.26;;;;;
2023/10/12 14:38:56;;;;;;;13.7;6.2;;;;;;;20.81;62.4;;;;;
2023/10/12 14:49:56;;;;;;;12.9;6.7;;;;;;;20.34;67.2;;;;;
2023/10/12 14:59:56;;;;;;;12.9;6.7;;;;;;;20.04;68.8;;;;;
2023/10/12 15:10:56;;;;;;;14.1;8;;;;;;;19.56;71.21;;;;;
2023/10/12 15:21:56;;;;;;;14.1;8;;;;;;;19.37;72.13;;;;;
2023/10/12 15:32:56;;;;;;;14.1;8;;;;;;;19.02;73.51;;;;;
2023/10/12 15:43:56;;;;;;;12.8;8.3;;;;;;;18.78;74.91;;;;;
2023/10/12 15:54:57;;;;;;;12.8;8.3;;;;;;;18.57;76.11;;;;;
2023/10/12 16:05:56;;;;;;;12.8;8.3;;;;;;;18.43;78.45;;;;;
2023/10/12 16:15:56;;;;;;;13.3;8.4;;;;;;;18.16;80.56;;;;;
2023/10/12 16:25:56;;;;;;;13.3;8.4;;;;;;;17.74;83.33;;;;;
2023/10/12 16:36:56;;;;;;;13.3;8.4;;;;;;;17.27;85.34;;;;;
2023/10/12 16:46:56;;;;;;;15.8;10.2;;;;;;;17.15;85.3;;;;;
2023/10/12 16:56:56;;;;;;;15.8;10.2;;;;;;;16.89;82.85;;;;;
2023/10/12 17:06:58;;;;;;;15.8;10.2;;;;;;;16.27;84.19;;;;;
2023/10/12 17:17:56;;;;;;;10.3;6.6;;;;;;;16.28;84.55;;;;;
2023/10/12 17:28:56;;;;;;;10.3;6.6;;;;;;;16.27;84.62;;;;;
2023/10/12 17:39:56;;;;;;;10.3;6.6;;;;;;;16.11;85.84;;;;;
2023/10/12 17:50:57;;;;;;;14.8;9.4;;;;;;;16.15;86.08;;;;;
2023/10/12 18:00:57;;;;;;;14.8;9.4;;;;;;;15.99;87.64;;;;;
2023/10/12 18:11:56;;;;;;;12;7.6;;;;;;;16.03;87.73;;;;;
2023/10/12 18:22:56;;;;;;;12;7.6;;;;;;;16.07;87.77;;;;;
2023/10/12 18:32:57;;;;;;;12;7.6;;;;;;;16.03;87.72;;;;;
2023/10/12 18:43:56;;;;;;;14.3;9.4;;;;;;;16.09;87.62;;;;;
2023/10/12 18:54:56;;;;;;;14.3;9.4;;;;;;;16.1;87.17;;;;;
2023/10/12 19:05:56;;;;;;;14.3;9.4;;;;;;;16;87.32;;;;;
2023/10/12 19:15:56;;;;;;;16.9;9.2;;;;;;;16;86.96;;;;;
2023/10/12 19:25:56;;;;;;;16.9;9.2;;;;;;;15.96;86.67;;;;;
2023/10/12 19:36:56;;;;;;;16.9;9.2;;;;;;;15.77;86.72;;;;;
2023/10/12 19:47:57;;;;;;;14.1;7.2;;;;;;;15.7;86.34;;;;;
2023/10/12 19:58:58;;;;;;;14.1;7.2;;;;;;;15.57;86.28;;;;;
2023/10/12 20:09:56;;;;;;;14.1;7.2;;;;;;;15.41;86.64;;;;;
2023/10/12 20:19:56;;;;;;;15.1;7.6;;;;;;;15.37;86.94;;;;;
2023/10/12 20:30:56;;;;;;;15.1;7.6;;;;;;;15.34;86.91;;;;;
2023/10/12 20:40:56;;;;;;;11;7.2;;;;;;;15.19;87.34;;;;;
2023/10/12 20:50:56;;;;;;;11;7.2;;;;;;;15.12;87.05;;;;;
2023/10/12 21:00:57;;;;;;;11;7.2;;;;;;;14.99;86.74;;;;;
2023/10/12 21:10:59;;;;;;;13.8;5.9;;;;;;;14.85;86.33;;;;;
2023/10/12 21:22:07;;;;;;;13.8;5.9;;;;;;;14.74;86.23;;;;;
2023/10/12 21:32:03;;;;;;;13.8;5.9;;;;;;;14.82;85.82;;;;;
2023/10/12 21:42:56;;;;;;;9.1;5.3;;;;;;;14.96;85.4;;;;;
2023/10/12 21:52:56;;;;;;;9.1;5.3;;;;;;;15.05;85.33;;;;;
2023/10/12 22:02:56;;;;;;;9.1;5.3;;;;;;;15.08;84.93;;;;;
2023/10/12 22:14:04;;;;;;;9.5;5;;;;;;;15.27;84.52;;;;;
2023/10/12 22:24:56;;;;;;;9.5;5;;;;;;;15.38;84.1;;;;;
2023/10/12 22:34:56;;;;;;;9.5;5;;;;;;;15.47;83.8;;;;;
2023/10/12 22:45:56;;;;;;;10.5;4.9;;;;;;;15.51;83.62;;;;;
2023/10/12 22:55:56;;;;;;;10.5;4.9;;;;;;;15.51;83.37;;;;;
2023/10/12 23:05:56;;;;;;;10.5;4.9;;;;;;;15.44;83.74;;;;;
2023/10/12 23:15:56;;;;;;;9.3;5.3;;;;;;;15.42;83.72;;;;;
2023/10/12 23:26:56;;;;;;;9.3;5.3;;;;;;;15.31;84;;;;;
2023/10/12 23:37:58;;;;;;;9.3;5.3;;;;;;;15.3;84.07;;;;;
2023/10/12 23:48:57;;;;;;;8.3;5;;;;;;;15.23;85.11;;;;;
2023/10/12 23:59:59;;;;;;;8.3;5;;;;;;;15.18;85.43;;;;;
